createdAt,value
2022-08-16T00:00:43.040Z,3.13
2022-08-16T00:03:13.326Z,3.03
2022-08-16T00:04:20.312Z,3.12
2022-08-16T00:06:47.958Z,3.65
2022-08-16T00:08:00.117Z,4.05
2022-08-16T00:10:32.734Z,3.10
2022-08-16T00:11:43.344Z,3.70
2022-08-16T00:12:52.760Z,3.32
2022-08-16T00:14:08.767Z,3.87
2022-08-16T00:15:22.203Z,3.20
2022-08-16T00:17:56.959Z,3.17
2022-08-16T00:19:01.193Z,3.45
2022-08-16T00:21:29.146Z,3.33
2022-08-16T00:22:45.540Z,3.53
2022-08-16T00:23:54.069Z,3.57
2022-08-16T00:25:06.569Z,2.90
2022-08-16T00:26:36.452Z,3.37
2022-08-16T00:28:44.415Z,3.60
2022-08-16T00:30:08.422Z,3.45
2022-08-16T00:31:07.887Z,3.47
2022-08-16T00:33:34.982Z,3.50
2022-08-16T00:36:00.613Z,3.68
2022-08-16T00:38:40.985Z,3.18
2022-08-16T00:39:57.996Z,3.57
2022-08-16T00:41:05.979Z,3.37
2022-08-16T00:42:30.797Z,3.65
2022-08-16T00:44:55.838Z,3.95
2022-08-16T00:47:30.028Z,3.90
2022-08-16T00:49:57.753Z,3.98
2022-08-16T00:52:35.412Z,3.55
2022-08-16T00:53:47.507Z,3.90
2022-08-16T00:54:56.576Z,4.12
2022-08-16T00:57:33.109Z,4.00
2022-08-16T00:58:43.089Z,4.03
2022-08-16T00:59:58.710Z,3.83
2022-08-16T01:02:31.750Z,4.35
2022-08-16T01:03:37.278Z,4.17
2022-08-16T01:05:10.426Z,3.95
2022-08-16T01:06:39.916Z,4.15
2022-08-16T01:07:17.665Z,3.77
2022-08-16T01:08:35.009Z,3.75
2022-08-16T01:10:56.409Z,3.47
2022-08-16T01:13:31.014Z,3.83
2022-08-16T01:17:36.928Z,4.28
2022-08-16T01:20:23.329Z,4.68
2022-08-16T01:23:00.181Z,3.77
2022-08-16T01:24:51.478Z,3.73
2022-08-16T01:25:59.794Z,4.00
2022-08-16T01:28:21.598Z,3.90
2022-08-16T01:30:56.661Z,4.20
2022-08-16T01:33:35.868Z,3.52
2022-08-16T01:36:11.635Z,4.07
2022-08-16T01:37:18.792Z,3.88
2022-08-16T01:38:32.262Z,4.35
2022-08-16T01:41:02.986Z,4.20
2022-08-16T01:42:15.483Z,3.60
2022-08-16T01:44:43.728Z,3.63
2022-08-16T01:45:57.749Z,3.93
2022-08-16T01:47:11.520Z,4.38
2022-08-16T01:48:21.633Z,4.43
2022-08-16T01:49:45.472Z,4.35
2022-08-16T01:51:16.368Z,4.35
2022-08-16T01:53:26.824Z,4.80
2022-08-16T01:54:48.846Z,4.88
2022-08-16T01:57:16.213Z,4.35
2022-08-16T01:58:28.642Z,4.65
2022-08-16T02:00:54.992Z,4.75
2022-08-16T02:03:24.434Z,4.17
2022-08-16T02:04:54.348Z,4.50
2022-08-16T02:05:52.051Z,3.87
2022-08-16T02:07:00.139Z,4.13
2022-08-16T02:08:33.512Z,4.50
2022-08-16T02:10:41.654Z,4.30
2022-08-16T02:11:58.392Z,4.83
2022-08-16T02:13:08.853Z,4.28
2022-08-16T02:14:21.466Z,4.00
2022-08-16T02:15:35.425Z,3.95
2022-08-16T02:16:45.854Z,4.27
2022-08-16T02:19:15.854Z,4.08
2022-08-16T02:20:28.395Z,4.50
2022-08-16T02:22:59.661Z,4.55
2022-08-16T02:24:31.912Z,4.10
2022-08-16T02:26:38.969Z,4.75
2022-08-16T02:27:51.700Z,4.33
2022-08-16T02:29:02.221Z,4.12
2022-08-16T02:30:37.403Z,3.90
2022-08-16T02:32:51.028Z,4.02
2022-08-16T02:35:09.301Z,4.05
2022-08-16T02:37:52.540Z,3.60
2022-08-16T02:38:58.741Z,4.12
2022-08-16T02:40:11.122Z,4.33
2022-08-16T02:41:22.098Z,4.30
2022-08-16T02:42:32.300Z,4.55
2022-08-16T02:44:56.837Z,4.32
2022-08-16T02:47:25.843Z,3.75
2022-08-16T02:48:38.021Z,3.74
2022-08-16T02:49:59.122Z,5.23
2022-08-16T02:51:06.601Z,4.75
2022-08-16T02:52:24.939Z,4.82
2022-08-16T02:53:25.353Z,4.47
2022-08-16T02:54:37.131Z,4.23
2022-08-16T02:55:50.498Z,4.53
2022-08-16T02:56:58.767Z,4.72
2022-08-16T02:59:27.752Z,4.50
2022-08-16T03:01:59.652Z,4.78
2022-08-16T03:05:56.019Z,4.22
2022-08-16T03:08:50.534Z,4.80
2022-08-16T03:09:37.336Z,3.70
2022-08-16T03:13:30.969Z,3.98
2022-08-16T03:15:57.903Z,4.18
2022-08-16T03:20:05.793Z,4.28
2022-08-16T03:21:18.544Z,4.90
2022-08-16T03:22:30.461Z,4.25
2022-08-16T03:23:42.040Z,4.68
2022-08-16T03:24:55.003Z,4.70
2022-08-16T03:26:06.391Z,4.25
2022-08-16T03:27:16.561Z,4.77
2022-08-16T03:28:28.035Z,4.68
2022-08-16T03:30:56.983Z,4.30
2022-08-16T03:32:08.036Z,4.55
2022-08-16T03:36:30.894Z,4.35
2022-08-16T03:37:15.813Z,4.82
2022-08-16T03:39:42.846Z,4.83
2022-08-16T03:40:51.912Z,5.23
2022-08-16T03:43:21.454Z,4.93
2022-08-16T03:44:43.985Z,5.40
2022-08-16T03:47:13.257Z,4.78
2022-08-16T03:49:42.850Z,4.72
2022-08-16T03:50:59.973Z,4.45
2022-08-16T03:54:58.029Z,4.65
2022-08-16T03:56:06.975Z,5.10
2022-08-16T03:58:44.520Z,4.78
2022-08-16T03:59:54.156Z,5.08
2022-08-16T04:02:31.492Z,5.00
2022-08-16T04:03:35.001Z,4.80
2022-08-16T04:06:15.303Z,4.93
2022-08-16T04:08:39.965Z,4.85
2022-08-16T04:09:50.231Z,4.95
2022-08-16T04:14:00.532Z,5.07
2022-08-16T04:16:27.436Z,4.43
2022-08-16T04:18:54.071Z,4.10
2022-08-16T04:23:08.922Z,4.62
2022-08-16T04:25:37.957Z,4.22
2022-08-16T04:28:51.845Z,4.87
2022-08-16T04:33:30.053Z,7.48
2022-08-16T04:34:43.051Z,5.65
2022-08-16T04:37:25.579Z,5.05
2022-08-16T04:39:57.363Z,5.05
2022-08-16T04:42:25.929Z,4.40
2022-08-16T04:44:53.815Z,4.75
2022-08-16T04:50:24.092Z,4.42
2022-08-16T04:53:16.516Z,4.80
2022-08-16T04:55:44.274Z,4.77
2022-08-16T04:59:49.743Z,4.50
2022-08-16T05:04:01.278Z,4.10
2022-08-16T05:06:17.214Z,3.92
2022-08-16T05:10:24.628Z,4.10
2022-08-16T05:11:35.128Z,4.22
2022-08-16T05:12:45.784Z,3.80
2022-08-16T05:13:56.125Z,3.50
2022-08-16T05:15:09.379Z,3.65
2022-08-16T05:17:40.765Z,3.80
2022-08-16T05:20:38.407Z,3.65
2022-08-16T05:23:00.499Z,4.25
2022-08-16T05:25:40.656Z,3.55
2022-08-16T05:29:59.298Z,4.15
2022-08-16T05:30:43.251Z,4.40
2022-08-16T05:33:28.455Z,4.06
2022-08-16T05:34:39.667Z,3.75
2022-08-16T05:35:55.455Z,4.08
2022-08-16T05:37:05.387Z,3.55
2022-08-16T05:38:32.368Z,3.73
2022-08-16T05:39:28.540Z,3.80
2022-08-16T05:40:38.435Z,3.80
2022-08-16T05:43:04.166Z,3.92
2022-08-16T05:45:33.409Z,3.90
2022-08-16T05:50:59.961Z,4.03
2022-08-16T05:56:27.742Z,4.20
2022-08-16T05:57:38.449Z,3.78
2022-08-16T05:58:49.406Z,4.07
2022-08-16T06:01:15.588Z,3.92
2022-08-16T06:03:44.931Z,4.08
2022-08-16T06:07:59.410Z,3.92
2022-08-16T06:10:33.175Z,3.70
2022-08-16T06:11:39.120Z,3.75
2022-08-16T06:14:19.858Z,4.00
2022-08-16T06:15:30.675Z,3.77
2022-08-16T06:17:55.831Z,3.80
2022-08-16T06:19:07.783Z,4.13
2022-08-16T06:22:01.337Z,3.78
2022-08-16T06:24:52.671Z,4.52
2022-08-16T06:25:39.602Z,4.07
2022-08-16T06:29:32.897Z,4.38
2022-08-16T06:30:43.570Z,3.74
2022-08-16T06:33:22.913Z,4.40
2022-08-16T06:34:57.394Z,4.20
2022-08-16T06:35:46.565Z,4.03
2022-08-16T06:38:22.249Z,4.35
2022-08-16T06:39:23.344Z,3.65
2022-08-16T06:42:05.348Z,3.93
2022-08-16T06:44:52.568Z,3.97
2022-08-16T06:46:55.074Z,4.22
2022-08-16T06:50:51.948Z,4.40
2022-08-16T06:52:03.487Z,4.50
2022-08-16T06:56:32.537Z,4.65
2022-08-16T06:57:54.527Z,4.13
2022-08-16T07:01:54.648Z,5.08
2022-08-16T07:04:33.217Z,4.27
2022-08-16T07:07:01.580Z,5.10
2022-08-16T07:08:11.847Z,4.90
2022-08-16T07:10:52.240Z,6.22
2022-08-16T07:13:53.150Z,5.85
2022-08-16T07:15:50.830Z,5.35
2022-08-16T07:21:13.941Z,3.90
2022-08-16T07:22:37.364Z,3.35
2022-08-16T07:26:25.732Z,3.45
2022-08-16T07:27:40.013Z,3.83
2022-08-16T07:30:38.060Z,4.47
2022-08-16T07:32:51.551Z,4.17
2022-08-16T07:35:13.627Z,3.90
2022-08-16T07:39:31.687Z,4.33
2022-08-16T07:42:01.045Z,4.15
2022-08-16T07:43:11.362Z,3.75
2022-08-16T07:44:21.313Z,4.25
2022-08-16T07:45:33.699Z,3.75
2022-08-16T07:47:59.137Z,4.10
2022-08-16T07:49:11.374Z,3.92
2022-08-16T07:50:56.494Z,4.00
2022-08-16T07:52:57.393Z,3.87
2022-08-16T07:54:16.846Z,4.35
2022-08-16T07:56:39.355Z,4.23
2022-08-16T07:58:00.673Z,4.08
2022-08-16T08:00:25.732Z,4.22
2022-08-16T08:02:57.048Z,4.45
2022-08-16T08:05:41.264Z,3.98
2022-08-16T08:08:11.816Z,4.67
2022-08-16T08:09:20.263Z,5.00
2022-08-16T08:11:59.813Z,4.77
2022-08-16T08:12:59.567Z,4.33
2022-08-16T08:14:08.959Z,5.12
2022-08-16T08:15:25.624Z,4.60
2022-08-16T08:16:37.219Z,4.57
2022-08-16T08:19:05.029Z,4.67
2022-08-16T08:22:01.152Z,5.12
2022-08-16T08:25:55.271Z,5.65
2022-08-16T08:28:22.287Z,5.67
2022-08-16T08:31:02.532Z,4.38
2022-08-16T08:33:32.315Z,4.02
2022-08-16T08:36:03.204Z,3.87
2022-08-16T08:38:45.787Z,3.98
2022-08-16T08:39:59.478Z,4.30
2022-08-16T08:41:08.712Z,4.85
2022-08-16T08:42:26.686Z,4.10
2022-08-16T08:44:44.549Z,5.08
2022-08-16T08:45:57.673Z,4.98
2022-08-16T08:48:33.281Z,5.03
2022-08-16T08:49:46.389Z,5.32
2022-08-16T08:52:08.097Z,7.28
2022-08-16T08:54:33.969Z,7.27
2022-08-16T08:58:34.340Z,5.33
2022-08-16T09:01:01.648Z,4.17
2022-08-16T09:04:57.433Z,3.88
2022-08-16T09:06:09.599Z,5.03
2022-08-16T09:08:39.849Z,4.75
2022-08-16T09:10:00.931Z,5.70
2022-08-16T09:12:36.203Z,5.32
2022-08-16T09:13:33.789Z,6.50
2022-08-16T09:16:03.322Z,5.95
2022-08-16T09:17:31.580Z,6.48
2022-08-16T09:18:26.812Z,6.33
2022-08-16T09:20:59.140Z,6.20
2022-08-16T09:22:08.124Z,6.00
2022-08-16T09:24:52.780Z,6.42
2022-08-16T09:27:13.708Z,6.30
2022-08-16T09:30:00.068Z,7.20
2022-08-16T09:32:28.504Z,6.95
2022-08-16T09:33:37.141Z,6.03
2022-08-16T09:34:46.720Z,6.22
2022-08-16T09:37:17.630Z,5.60
2022-08-16T09:39:41.363Z,7.20
2022-08-16T09:40:47.926Z,7.15
2022-08-16T09:42:00.336Z,10.65
2022-08-16T09:43:21.037Z,9.38
2022-08-16T09:45:09.467Z,6.67
2022-08-16T09:45:43.581Z,6.30
2022-08-16T09:46:57.745Z,5.98
2022-08-16T09:48:09.023Z,6.15
2022-08-16T09:49:19.969Z,6.70
2022-08-16T09:50:36.990Z,6.70
2022-08-16T09:51:42.486Z,7.03
2022-08-16T09:52:53.049Z,6.73
2022-08-16T09:54:02.142Z,6.40
2022-08-16T09:56:33.067Z,6.75
2022-08-16T09:57:42.161Z,7.83
2022-08-16T09:59:04.810Z,7.15
2022-08-16T10:00:42.290Z,6.75
2022-08-16T10:01:22.203Z,6.95
2022-08-16T10:04:02.529Z,6.42
2022-08-16T10:04:59.292Z,6.57
2022-08-16T10:06:10.466Z,6.10
2022-08-16T10:07:20.759Z,6.22
2022-08-16T10:08:32.167Z,7.05
2022-08-16T10:09:55.852Z,6.52
2022-08-16T10:12:55.714Z,6.60
2022-08-16T10:13:59.807Z,5.72
2022-08-16T10:16:27.042Z,5.95
2022-08-16T10:19:06.748Z,6.47
2022-08-16T10:23:02.052Z,6.08
2022-08-16T10:24:08.225Z,6.00
2022-08-16T10:27:00.650Z,7.03
2022-08-16T10:27:19.484Z,6.07
2022-08-16T10:29:04.868Z,7.22
2022-08-16T10:30:24.954Z,6.05
2022-08-16T10:32:42.317Z,6.87
2022-08-16T10:33:52.292Z,6.77
2022-08-16T10:35:03.458Z,5.70
2022-08-16T10:36:39.360Z,6.57
2022-08-16T10:37:32.738Z,6.13
2022-08-16T10:38:39.875Z,6.38
2022-08-16T10:39:52.011Z,6.47
2022-08-16T10:41:03.870Z,5.82
2022-08-16T10:43:31.014Z,5.77
2022-08-16T10:45:59.967Z,5.98
2022-08-16T10:48:27.917Z,6.57
2022-08-16T10:52:19.397Z,6.25
2022-08-16T10:58:46.154Z,6.52
2022-08-16T11:01:40.151Z,6.48
2022-08-16T11:05:12.735Z,5.92
2022-08-16T11:06:26.759Z,6.27
2022-08-16T11:09:21.063Z,6.68
2022-08-16T11:14:16.938Z,6.38
2022-08-16T11:15:26.799Z,6.60
2022-08-16T11:19:02.886Z,7.25
2022-08-16T11:19:12.456Z,6.63
2022-08-16T11:21:29.831Z,7.22
2022-08-16T11:22:48.457Z,6.78
2022-08-16T11:23:57.812Z,7.42
2022-08-16T11:26:24.240Z,6.80
2022-08-16T11:27:36.058Z,6.75
2022-08-16T11:31:13.624Z,6.50
2022-08-16T11:32:31.460Z,6.75
2022-08-16T11:33:53.694Z,6.85
2022-08-16T11:35:11.240Z,6.80
2022-08-16T11:37:27.226Z,7.07
2022-08-16T11:40:00.045Z,6.72
2022-08-16T11:42:37.707Z,6.60
2022-08-16T11:43:47.092Z,7.32
2022-08-16T11:46:44.833Z,7.03
2022-08-16T11:47:41.995Z,6.73
2022-08-16T11:48:52.507Z,6.66
2022-08-16T11:51:11.515Z,6.35
2022-08-16T11:53:38.410Z,6.80
2022-08-16T11:56:04.097Z,6.55
2022-08-16T11:57:15.439Z,7.00
2022-08-16T11:58:27.192Z,7.07
2022-08-16T11:59:40.004Z,6.48
2022-08-16T12:00:53.427Z,6.23
2022-08-16T12:03:17.491Z,6.58
2022-08-16T12:05:44.844Z,7.00
2022-08-16T12:08:26.079Z,6.27
2022-08-16T12:09:40.111Z,7.05
2022-08-16T12:10:48.567Z,7.03
2022-08-16T12:12:02.876Z,7.05
2022-08-16T12:14:26.806Z,7.15
2022-08-16T12:16:57.009Z,6.78
2022-08-16T12:19:36.049Z,6.95
2022-08-16T12:22:05.758Z,7.38
2022-08-16T12:23:14.744Z,8.40
2022-08-16T12:25:42.157Z,7.65
2022-08-16T12:28:09.709Z,7.65
2022-08-16T12:30:38.559Z,7.32
2022-08-16T12:33:06.574Z,7.12
2022-08-16T12:34:19.836Z,7.30
2022-08-16T12:35:29.568Z,7.42
2022-08-16T12:37:56.800Z,7.87
2022-08-16T12:40:29.140Z,7.22
2022-08-16T12:43:07.426Z,7.97
2022-08-16T12:44:20.573Z,8.72
2022-08-16T12:45:35.617Z,9.15
2022-08-16T12:48:33.675Z,9.55
2022-08-16T12:49:42.214Z,9.00
2022-08-16T12:50:50.052Z,8.55
2022-08-16T12:52:01.286Z,8.35
2022-08-16T12:54:27.444Z,7.88
2022-08-16T12:55:41.920Z,8.65
2022-08-16T12:58:03.463Z,7.82
2022-08-16T12:59:19.897Z,7.97
2022-08-16T13:00:33.526Z,8.40
2022-08-16T13:03:03.097Z,7.30
2022-08-16T13:04:20.836Z,7.92
2022-08-16T13:06:42.054Z,7.23
2022-08-16T13:09:26.526Z,8.05
2022-08-16T13:12:07.889Z,7.60
2022-08-16T13:16:15.285Z,7.83
2022-08-16T13:17:29.561Z,7.03
2022-08-16T13:18:38.427Z,6.95
2022-08-16T13:20:08.241Z,7.52
2022-08-16T13:22:24.441Z,7.12
2022-08-16T13:24:53.389Z,6.35
2022-08-16T13:28:48.020Z,6.48
2022-08-16T13:29:57.984Z,7.10
2022-08-16T13:31:08.356Z,6.25
2022-08-16T13:32:40.589Z,6.85
2022-08-16T13:34:51.310Z,7.37
2022-08-16T13:36:02.046Z,6.40
2022-08-16T13:37:12.155Z,6.83
2022-08-16T13:38:25.782Z,7.13
2022-08-16T13:39:36.367Z,7.65
2022-08-16T13:42:03.986Z,6.85
2022-08-16T13:43:13.888Z,6.35
2022-08-16T13:44:48.998Z,7.10
2022-08-16T13:45:37.382Z,7.12
2022-08-16T13:46:49.819Z,7.72
2022-08-16T13:49:16.469Z,7.80
2022-08-16T13:50:31.267Z,6.90
2022-08-16T13:51:43.609Z,7.20
2022-08-16T13:52:54.134Z,6.93
2022-08-16T13:55:21.820Z,7.55
2022-08-16T13:58:35.352Z,6.92
2022-08-16T14:00:34.407Z,6.53
2022-08-16T14:03:00.321Z,5.85
2022-08-16T14:04:10.532Z,6.50
2022-08-16T14:05:22.351Z,6.43
2022-08-16T14:07:52.815Z,6.92
2022-08-16T14:10:15.191Z,6.10
2022-08-16T14:12:52.982Z,6.20
2022-08-16T14:14:05.548Z,6.14
2022-08-16T14:16:43.923Z,6.17
2022-08-16T14:19:11.069Z,6.42
2022-08-16T14:21:36.992Z,6.40
2022-08-16T14:24:29.781Z,6.35
2022-08-16T14:25:27.391Z,5.72
2022-08-16T14:27:59.877Z,6.75
2022-08-16T14:31:31.344Z,6.28
2022-08-16T14:32:46.943Z,22.07
2022-08-16T14:35:15.227Z,9.00
2022-08-16T14:37:43.213Z,6.92
2022-08-16T14:40:23.463Z,6.95
2022-08-16T14:42:50.839Z,6.65
2022-08-16T14:44:04.413Z,6.60
2022-08-16T14:45:16.976Z,7.05
2022-08-16T14:46:28.505Z,6.72
2022-08-16T14:47:38.544Z,6.70
2022-08-16T14:48:48.425Z,5.50
2022-08-16T14:49:58.508Z,6.67
2022-08-16T14:51:09.438Z,6.05
2022-08-16T14:53:37.076Z,6.40
2022-08-16T14:56:04.879Z,6.70
2022-08-16T15:00:04.751Z,6.83
2022-08-16T15:02:34.480Z,6.70
2022-08-16T15:06:23.469Z,6.85
2022-08-16T15:08:49.272Z,7.63
2022-08-16T15:13:12.046Z,8.67
2022-08-16T15:15:45.340Z,9.28
2022-08-16T15:18:14.067Z,8.37
2022-08-16T15:22:19.046Z,5.97
2022-08-16T15:23:33.849Z,6.22
2022-08-16T15:26:02.845Z,6.83
2022-08-16T15:27:10.716Z,7.82
2022-08-16T15:29:35.996Z,6.20
2022-08-16T15:30:57.176Z,7.25
2022-08-16T15:32:00.962Z,5.17
2022-08-16T15:33:16.051Z,5.60
2022-08-16T15:35:44.002Z,4.00
2022-08-16T15:36:54.472Z,4.68
2022-08-16T15:39:31.814Z,5.05
2022-08-16T15:40:35.898Z,5.92
2022-08-16T15:43:07.313Z,6.10
2022-08-16T15:49:17.027Z,4.93
2022-08-16T15:51:44.839Z,4.38
2022-08-16T15:54:29.179Z,4.53
2022-08-16T15:58:35.669Z,3.40
2022-08-16T16:00:53.925Z,3.60
2022-08-16T16:04:48.849Z,4.77
2022-08-16T16:06:03.179Z,5.05
2022-08-16T16:07:14.110Z,5.03
2022-08-16T16:08:28.549Z,5.22
2022-08-16T16:09:38.673Z,5.12
2022-08-16T16:12:34.075Z,5.17
2022-08-16T16:14:33.507Z,6.08
2022-08-16T16:18:29.518Z,6.28
2022-08-16T16:20:57.505Z,6.70
2022-08-16T16:23:41.272Z,5.42
2022-08-16T16:26:07.165Z,7.85
2022-08-16T16:27:17.254Z,7.18
2022-08-16T16:29:46.400Z,6.55
2022-08-16T16:32:12.255Z,6.68
2022-08-16T16:34:52.015Z,6.68
2022-08-16T16:36:03.133Z,6.75
2022-08-16T16:37:15.782Z,5.27
2022-08-16T16:39:44.281Z,3.98
2022-08-16T16:40:56.499Z,4.33
2022-08-16T16:43:26.014Z,5.35
2022-08-16T16:44:37.302Z,5.03
2022-08-16T16:45:44.916Z,4.60
2022-08-16T16:48:12.815Z,3.80
2022-08-16T16:50:38.872Z,4.00
2022-08-16T16:54:32.322Z,3.40
2022-08-16T16:56:59.238Z,2.88
2022-08-16T16:58:53.358Z,3.10
2022-08-16T16:59:55.947Z,8.38
2022-08-16T17:03:53.838Z,5.13
2022-08-16T17:06:18.630Z,3.32
2022-08-16T17:08:55.967Z,4.75
2022-08-16T17:11:38.140Z,4.55
2022-08-16T17:12:50.657Z,4.30
2022-08-16T17:14:02.812Z,5.40
2022-08-16T17:17:59.654Z,5.08
2022-08-16T17:20:22.346Z,5.07
2022-08-16T17:22:55.840Z,4.95
2022-08-16T17:26:48.970Z,3.35
2022-08-16T17:29:13.453Z,3.22
2022-08-16T17:33:13.324Z,3.50
2022-08-16T17:35:44.095Z,3.07
2022-08-16T17:38:39.320Z,3.30
2022-08-16T17:39:54.810Z,3.17
2022-08-16T17:40:58.592Z,3.32
2022-08-16T17:42:05.287Z,3.60
2022-08-16T17:44:34.682Z,3.63
2022-08-16T17:45:45.091Z,3.55
2022-08-16T17:48:11.045Z,3.55
2022-08-16T17:50:36.584Z,3.60
2022-08-16T17:51:46.397Z,3.03
2022-08-16T17:54:20.316Z,3.90
2022-08-16T17:56:55.289Z,4.27
2022-08-16T18:00:48.864Z,3.97
2022-08-16T18:03:18.077Z,3.47
2022-08-16T18:05:56.476Z,4.95
2022-08-16T18:08:21.830Z,4.75
2022-08-16T18:09:33.747Z,5.32
2022-08-16T18:12:44.839Z,4.92
2022-08-16T18:13:33.971Z,4.23
2022-08-16T18:15:59.146Z,3.38
2022-08-16T18:18:26.225Z,4.22
2022-08-16T18:22:37.181Z,4.43
2022-08-16T18:23:48.180Z,4.10
2022-08-16T18:24:58.944Z,4.87
2022-08-16T18:27:25.177Z,4.65
2022-08-16T18:29:52.142Z,4.65
2022-08-16T18:31:05.449Z,3.98
2022-08-16T18:32:16.668Z,3.60
2022-08-16T18:34:44.420Z,3.52
2022-08-16T18:37:10.897Z,3.08
2022-08-16T18:41:04.138Z,3.88
2022-08-16T18:42:17.814Z,4.28
2022-08-16T18:44:14.240Z,4.48
2022-08-16T18:45:57.086Z,4.85
2022-08-16T18:47:09.065Z,5.00
2022-08-16T18:49:37.265Z,4.90
2022-08-16T18:51:03.846Z,5.20
2022-08-16T18:53:19.482Z,4.80
2022-08-16T18:54:30.342Z,3.55
2022-08-16T18:56:57.341Z,3.67
2022-08-16T18:59:21.955Z,3.42
2022-08-16T19:02:06.017Z,2.85
2022-08-16T19:04:55.388Z,3.17
2022-08-16T19:09:50.502Z,4.20
2022-08-16T19:12:38.740Z,4.38
2022-08-16T19:14:58.123Z,4.95
2022-08-16T19:16:07.950Z,5.77
2022-08-16T19:18:36.376Z,5.45
2022-08-16T19:19:44.415Z,5.47
2022-08-16T19:21:00.152Z,5.35
2022-08-16T19:22:09.429Z,5.18
2022-08-16T19:24:37.366Z,5.70
2022-08-16T19:41:46.074Z,4.75
2022-08-16T19:44:10.723Z,4.28
2022-08-16T19:46:49.376Z,3.55
2022-08-16T19:49:17.549Z,3.50
2022-08-16T19:53:13.097Z,3.55
2022-08-16T19:55:38.886Z,3.95
2022-08-16T19:58:16.749Z,4.28
2022-08-16T19:59:40.502Z,5.35
2022-08-16T20:01:53.242Z,4.73
2022-08-16T20:04:22.043Z,5.00
2022-08-16T20:06:49.242Z,5.00
2022-08-16T20:09:28.085Z,4.10
2022-08-16T20:10:39.183Z,3.30
2022-08-16T20:11:52.529Z,4.00
2022-08-16T20:13:02.847Z,4.15
2022-08-16T20:15:29.296Z,4.35
2022-08-16T20:17:54.362Z,4.98
2022-08-16T20:20:22.722Z,4.77
2022-08-16T20:24:33.652Z,5.02
2022-08-16T20:25:30.421Z,4.68
2022-08-16T20:26:41.964Z,5.13
2022-08-16T20:27:52.135Z,5.72
2022-08-16T20:29:01.371Z,5.20
2022-08-16T20:30:14.421Z,5.50
2022-08-16T20:31:24.654Z,5.08
2022-08-16T20:33:50.452Z,5.48
2022-08-16T20:35:00.664Z,4.45
2022-08-16T20:37:25.124Z,4.02
2022-08-16T20:39:52.607Z,3.70
2022-08-16T20:44:08.095Z,4.50
2022-08-16T20:45:21.292Z,5.05
2022-08-16T20:46:31.624Z,5.07
2022-08-16T20:47:41.762Z,5.38
2022-08-16T20:48:51.951Z,5.05
2022-08-16T20:50:01.501Z,5.55
2022-08-16T20:52:28.127Z,5.13
2022-08-16T20:53:41.580Z,5.25
2022-08-16T20:54:51.970Z,5.22
2022-08-16T20:58:26.173Z,5.87
2022-08-16T20:59:35.863Z,5.57
2022-08-16T21:02:00.290Z,5.72
2022-08-16T21:04:29.104Z,4.83
2022-08-16T21:07:07.908Z,3.85
2022-08-16T21:09:34.631Z,3.55
2022-08-16T21:12:12.948Z,3.73
2022-08-16T21:14:56.071Z,4.80
2022-08-16T21:17:21.069Z,5.25
2022-08-16T21:18:29.904Z,5.05
2022-08-16T21:19:39.612Z,5.12
2022-08-16T21:20:49.932Z,5.18
2022-08-16T21:22:15.206Z,5.05
2022-08-16T21:23:25.560Z,5.45
2022-08-16T21:25:59.329Z,5.63
2022-08-16T21:27:02.728Z,5.10
2022-08-16T21:28:40.101Z,5.38
2022-08-16T21:30:41.328Z,5.17
2022-08-16T21:31:50.748Z,5.40
2022-08-16T21:34:21.073Z,4.92
2022-08-16T21:35:29.977Z,5.80
2022-08-16T21:38:00.206Z,5.77
2022-08-16T21:44:39.035Z,5.73
2022-08-16T21:45:54.861Z,5.43
2022-08-16T21:47:00.882Z,5.82
2022-08-16T21:48:10.692Z,6.10
2022-08-16T21:50:35.562Z,6.20
2022-08-16T21:53:09.826Z,5.87
2022-08-16T21:57:10.113Z,5.90
2022-08-16T21:58:16.756Z,5.30
2022-08-16T22:00:42.230Z,5.93
2022-08-16T22:03:11.401Z,6.47
2022-08-16T22:05:59.931Z,6.00
2022-08-16T22:08:16.476Z,6.43
2022-08-16T22:09:27.275Z,5.82
2022-08-16T22:11:06.449Z,5.77
2022-08-16T22:11:50.079Z,5.78
2022-08-16T22:14:15.282Z,5.80
2022-08-16T22:15:26.908Z,5.68
2022-08-16T22:17:56.163Z,6.52
2022-08-16T22:20:22.658Z,6.75
2022-08-16T22:24:26.271Z,5.73
2022-08-16T22:25:36.645Z,5.95
2022-08-16T22:26:46.044Z,5.88
2022-08-16T22:27:56.533Z,5.75
2022-08-16T22:30:24.246Z,5.67
2022-08-16T22:31:33.934Z,5.93
2022-08-16T22:32:45.560Z,5.70
2022-08-16T22:33:56.328Z,6.00
2022-08-16T22:35:11.596Z,5.92
2022-08-16T22:37:37.032Z,6.08
2022-08-16T22:39:58.557Z,5.58
2022-08-16T22:41:09.108Z,5.25
2022-08-16T22:43:33.544Z,4.92
2022-08-16T22:45:59.354Z,5.12
2022-08-16T22:48:39.397Z,5.03
2022-08-16T22:49:49.065Z,5.65
2022-08-16T22:50:58.414Z,5.45
2022-08-16T22:53:26.585Z,5.40
2022-08-16T22:55:52.765Z,5.68
2022-08-16T22:58:36.363Z,5.12
2022-08-16T22:59:44.233Z,5.25
2022-08-16T23:00:53.866Z,5.50
2022-08-16T23:03:23.109Z,4.98
2022-08-16T23:05:50.587Z,5.75
2022-08-16T23:08:38.115Z,5.67
2022-08-16T23:09:43.280Z,5.50
2022-08-16T23:10:53.340Z,5.72
2022-08-16T23:13:22.162Z,5.55
2022-08-16T23:14:32.676Z,5.65
2022-08-16T23:16:58.272Z,5.47
2022-08-16T23:18:08.462Z,4.85
2022-08-16T23:19:17.949Z,6.00
2022-08-16T23:20:29.923Z,5.90
2022-08-16T23:21:43.788Z,5.30
2022-08-16T23:24:15.465Z,5.50
2022-08-16T23:25:32.476Z,5.72
2022-08-16T23:27:59.158Z,5.28
2022-08-16T23:29:15.635Z,5.00
2022-08-16T23:33:17.935Z,6.45
2022-08-16T23:35:47.841Z,5.70
2022-08-16T23:39:43.767Z,5.15
2022-08-16T23:40:54.276Z,5.15
2022-08-16T23:42:14.075Z,4.90
2022-08-16T23:44:57.833Z,5.15
2022-08-16T23:47:18.839Z,5.62
2022-08-16T23:50:00.130Z,5.35
2022-08-16T23:53:45.142Z,5.10
2022-08-16T23:57:21.387Z,5.62
2022-08-16T23:59:53.641Z,5.67
